sensor_id;sensor_type;location;lat;lon;timestamp;P1;P2;P0
28647;PMS5003;17137;51.494;-0.262;2023-08-06T00:00:16;4;4;
28647;PMS5003;17137;51.494;-0.262;2023-08-06T00:00:46;4;4;
28647;PMS5003;17137;51.494;-0.262;2023-08-06T00:01:17;4;4;
28647;PMS5003;17137;51.494;-0.262;2023-08-06T00:01:47;4;4;
28647;PMS5003;17137;51.494;-0.262;2023-08-06T00:02:18;4;4;
28647;PMS5003;17137;51.494;-0.262;2023-08-06T00:02:48;4;4;
28647;PMS5003;17137;51.494;-0.262;2023-08-06T00:03:19;4;4;
28647;PMS5003;17137;51.494;-0.262;2023-08-06T00:03:49;4;4;
28647;PMS5003;17137;51.494;-0.262;2023-08-06T00:04:19;4;4;
28647;PMS5003;17137;51.494;-0.262;2023-08-06T00:04:50;4;4;
28647;PMS5003;17137;51.494;-0.262;2023-08-06T00:05:20;4;4;
28647;PMS5003;17137;51.494;-0.262;2023-08-06T00:05:50;6;4;
28647;PMS5003;17137;51.494;-0.262;2023-08-06T00:06:21;4;4;
28647;PMS5003;17137;51.494;-0.262;2023-08-06T00:06:51;4;4;
28647;PMS5003;17137;51.494;-0.262;2023-08-06T00:07:22;3;3;
28647;PMS5003;17137;51.494;-0.262;2023-08-06T00:07:52;3;3;
28647;PMS5003;17137;51.494;-0.262;2023-08-06T00:08:22;3;3;
28647;PMS5003;17137;51.494;-0.262;2023-08-06T00:08:52;3;3;
28647;PMS5003;17137;51.494;-0.262;2023-08-06T00:09:23;4;4;
28647;PMS5003;17137;51.494;-0.262;2023-08-06T00:09:53;4;4;
28647;PMS5003;17137;51.494;-0.262;2023-08-06T00:10:23;4;4;
28647;PMS5003;17137;51.494;-0.262;2023-08-06T00:10:54;3;3;
28647;PMS5003;17137;51.494;-0.262;2023-08-06T00:11:24;3;3;
28647;PMS5003;17137;51.494;-0.262;2023-08-06T00:11:54;3;3;
28647;PMS5003;17137;51.494;-0.262;2023-08-06T00:12:24;4;4;
28647;PMS5003;17137;51.494;-0.262;2023-08-06T00:12:55;4;4;
28647;PMS5003;17137;51.494;-0.262;2023-08-06T00:13:25;4;4;
28647;PMS5003;17137;51.494;-0.262;2023-08-06T00:13:55;4;4;
28647;PMS5003;17137;51.494;-0.262;2023-08-06T00:14:26;5;5;
28647;PMS5003;17137;51.494;-0.262;2023-08-06T00:14:56;5;5;
28647;PMS5003;17137;51.494;-0.262;2023-08-06T00:15:26;6;5;
28647;PMS5003;17137;51.494;-0.262;2023-08-06T00:16:07;6;5;
28647;PMS5003;17137;51.494;-0.262;2023-08-06T00:16:38;6;5;
28647;PMS5003;17137;51.494;-0.262;2023-08-06T00:17:09;7;5;
28647;PMS5003;17137;51.494;-0.262;2023-08-06T00:17:39;7;5;
28647;PMS5003;17137;51.494;-0.262;2023-08-06T00:18:09;7;5;
28647;PMS5003;17137;51.494;-0.262;2023-08-06T00:18:40;7;5;
28647;PMS5003;17137;51.494;-0.262;2023-08-06T00:19:10;7;5;
28647;PMS5003;17137;51.494;-0.262;2023-08-06T00:19:41;7;5;
28647;PMS5003;17137;51.494;-0.262;2023-08-06T00:20:11;6;4;
28647;PMS5003;17137;51.494;-0.262;2023-08-06T00:20:41;6;4;
28647;PMS5003;17137;51.494;-0.262;2023-08-06T00:21:11;6;4;
28647;PMS5003;17137;51.494;-0.262;2023-08-06T00:21:42;6;5;
28647;PMS5003;17137;51.494;-0.262;2023-08-06T00:22:12;6;5;
28647;PMS5003;17137;51.494;-0.262;2023-08-06T00:22:42;4;4;
28647;PMS5003;17137;51.494;-0.262;2023-08-06T00:23:13;4;4;
28647;PMS5003;17137;51.494;-0.262;2023-08-06T00:23:43;4;4;
28647;PMS5003;17137;51.494;-0.262;2023-08-06T00:24:13;4;4;
28647;PMS5003;17137;51.494;-0.262;2023-08-06T00:24:43;4;4;
28647;PMS5003;17137;51.494;-0.262;2023-08-06T00:25:14;4;4;
28647;PMS5003;17137;51.494;-0.262;2023-08-06T00:25:44;4;4;
28647;PMS5003;17137;51.494;-0.262;2023-08-06T00:26:14;4;4;
28647;PMS5003;17137;51.494;-0.262;2023-08-06T00:26:44;4;4;
28647;PMS5003;17137;51.494;-0.262;2023-08-06T00:27:15;4;4;
28647;PMS5003;17137;51.494;-0.262;2023-08-06T00:27:45;4;4;
28647;PMS5003;17137;51.494;-0.262;2023-08-06T00:28:15;4;4;
28647;PMS5003;17137;51.494;-0.262;2023-08-06T00:28:45;5;5;
28647;PMS5003;17137;51.494;-0.262;2023-08-06T00:29:16;5;5;
28647;PMS5003;17137;51.494;-0.262;2023-08-06T00:29:46;5;5;
28647;PMS5003;17137;51.494;-0.262;2023-08-06T00:30:16;5;5;
28647;PMS5003;17137;51.494;-0.262;2023-08-06T00:30:52;7;6;
28647;PMS5003;17137;51.494;-0.262;2023-08-06T00:31:22;7;6;
28647;PMS5003;17137;51.494;-0.262;2023-08-06T00:31:53;8;6;
28647;PMS5003;17137;51.494;-0.262;2023-08-06T00:32:23;8;6;
28647;PMS5003;17137;51.494;-0.262;2023-08-06T00:32:53;8;6;
28647;PMS5003;17137;51.494;-0.262;2023-08-06T00:33:24;7;5;
28647;PMS5003;17137;51.494;-0.262;2023-08-06T00:33:54;7;5;
28647;PMS5003;17137;51.494;-0.262;2023-08-06T00:34:25;7;5;
28647;PMS5003;17137;51.494;-0.262;2023-08-06T00:34:55;5;5;
28647;PMS5003;17137;51.494;-0.262;2023-08-06T00:35:25;5;5;
28647;PMS5003;17137;51.494;-0.262;2023-08-06T00:35:55;5;5;
28647;PMS5003;17137;51.494;-0.262;2023-08-06T00:36:26;5;5;
28647;PMS5003;17137;51.494;-0.262;2023-08-06T00:36:56;5;5;
28647;PMS5003;17137;51.494;-0.262;2023-08-06T00:37:26;5;5;
28647;PMS5003;17137;51.494;-0.262;2023-08-06T00:37:57;4;4;
28647;PMS5003;17137;51.494;-0.262;2023-08-06T00:38:28;4;4;
28647;PMS5003;17137;51.494;-0.262;2023-08-06T00:38:58;6;6;
28647;PMS5003;17137;51.494;-0.262;2023-08-06T00:39:28;6;6;
28647;PMS5003;17137;51.494;-0.262;2023-08-06T00:39:59;6;6;
28647;PMS5003;17137;51.494;-0.262;2023-08-06T00:40:29;6;6;
28647;PMS5003;17137;51.494;-0.262;2023-08-06T00:40:59;6;6;
28647;PMS5003;17137;51.494;-0.262;2023-08-06T00:41:30;6;6;
28647;PMS5003;17137;51.494;-0.262;2023-08-06T00:42:00;5;5;
28647;PMS5003;17137;51.494;-0.262;2023-08-06T00:42:35;5;5;
28647;PMS5003;17137;51.494;-0.262;2023-08-06T00:43:05;5;5;
28647;PMS5003;17137;51.494;-0.262;2023-08-06T00:43:36;4;4;
28647;PMS5003;17137;51.494;-0.262;2023-08-06T00:44:06;4;4;
28647;PMS5003;17137;51.494;-0.262;2023-08-06T00:44:36;4;4;
28647;PMS5003;17137;51.494;-0.262;2023-08-06T00:45:07;4;4;
28647;PMS5003;17137;51.494;-0.262;2023-08-06T00:45:43;5;5;
28647;PMS5003;17137;51.494;-0.262;2023-08-06T00:46:13;5;5;
28647;PMS5003;17137;51.494;-0.262;2023-08-06T00:46:44;5;5;
28647;PMS5003;17137;51.494;-0.262;2023-08-06T00:47:14;5;5;
28647;PMS5003;17137;51.494;-0.262;2023-08-06T00:47:45;5;5;
28647;PMS5003;17137;51.494;-0.262;2023-08-06T00:48:17;5;5;
28647;PMS5003;17137;51.494;-0.262;2023-08-06T00:48:47;5;5;
28647;PMS5003;17137;51.494;-0.262;2023-08-06T00:49:17;5;5;
28647;PMS5003;17137;51.494;-0.262;2023-08-06T00:49:48;5;5;
28647;PMS5003;17137;51.494;-0.262;2023-08-06T00:50:19;5;5;
28647;PMS5003;17137;51.494;-0.262;2023-08-06T00:50:49;5;5;
28647;PMS5003;17137;51.494;-0.262;2023-08-06T00:51:20;5;5;
28647;PMS5003;17137;51.494;-0.262;2023-08-06T00:51:51;5;5;
28647;PMS5003;17137;51.494;-0.262;2023-08-06T00:52:22;5;5;
28647;PMS5003;17137;51.494;-0.262;2023-08-06T00:52:52;5;5;
28647;PMS5003;17137;51.494;-0.262;2023-08-06T00:53:23;3;3;
28647;PMS5003;17137;51.494;-0.262;2023-08-06T00:53:53;3;3;
28647;PMS5003;17137;51.494;-0.262;2023-08-06T00:54:25;3;3;
28647;PMS5003;17137;51.494;-0.262;2023-08-06T00:54:57;4;4;
28647;PMS5003;17137;51.494;-0.262;2023-08-06T00:55:28;5;5;
28647;PMS5003;17137;51.494;-0.262;2023-08-06T00:55:58;5;5;
28647;PMS5003;17137;51.494;-0.262;2023-08-06T00:56:29;6;6;
28647;PMS5003;17137;51.494;-0.262;2023-08-06T00:57:01;6;6;
28647;PMS5003;17137;51.494;-0.262;2023-08-06T00:57:33;6;6;
28647;PMS5003;17137;51.494;-0.262;2023-08-06T00:58:04;6;6;
28647;PMS5003;17137;51.494;-0.262;2023-08-06T00:58:35;6;6;
28647;PMS5003;17137;51.494;-0.262;2023-08-06T00:59:06;6;6;
28647;PMS5003;17137;51.494;-0.262;2023-08-06T00:59:36;6;6;
28647;PMS5003;17137;51.494;-0.262;2023-08-06T01:00:07;6;6;
28647;PMS5003;17137;51.494;-0.262;2023-08-06T01:00:38;6;6;
28647;PMS5003;17137;51.494;-0.262;2023-08-06T01:01:09;6;6;
28647;PMS5003;17137;51.494;-0.262;2023-08-06T01:01:39;6;6;
28647;PMS5003;17137;51.494;-0.262;2023-08-06T01:02:09;6;6;
28647;PMS5003;17137;51.494;-0.262;2023-08-06T01:02:39;5;5;
28647;PMS5003;17137;51.494;-0.262;2023-08-06T01:03:10;5;5;
28647;PMS5003;17137;51.494;-0.262;2023-08-06T01:03:40;4;2;
28647;PMS5003;17137;51.494;-0.262;2023-08-06T01:04:10;4;2;
28647;PMS5003;17137;51.494;-0.262;2023-08-06T01:04:42;5;4;
28647;PMS5003;17137;51.494;-0.262;2023-08-06T01:05:12;5;4;
28647;PMS5003;17137;51.494;-0.262;2023-08-06T01:05:42;5;4;
28647;PMS5003;17137;51.494;-0.262;2023-08-06T01:06:13;5;3;
28647;PMS5003;17137;51.494;-0.262;2023-08-06T01:06:48;5;3;
28647;PMS5003;17137;51.494;-0.262;2023-08-06T01:07:33;5;3;
28647;PMS5003;17137;51.494;-0.262;2023-08-06T01:08:16;3;3;
28647;PMS5003;17137;51.494;-0.262;2023-08-06T01:08:58;2;2;
28647;PMS5003;17137;51.494;-0.262;2023-08-06T01:09:39;2;2;
28647;PMS5003;17137;51.494;-0.262;2023-08-06T01:10:19;2;2;
28647;PMS5003;17137;51.494;-0.262;2023-08-06T01:11:01;2;2;
28647;PMS5003;17137;51.494;-0.262;2023-08-06T01:11:44;2;2;
28647;PMS5003;17137;51.494;-0.262;2023-08-06T01:12:25;2;2;
28647;PMS5003;17137;51.494;-0.262;2023-08-06T01:13:05;2;2;
28647;PMS5003;17137;51.494;-0.262;2023-08-06T01:13:45;5;5;
28647;PMS5003;17137;51.494;-0.262;2023-08-06T01:14:18;5;5;
28647;PMS5003;17137;51.494;-0.262;2023-08-06T01:14:57;5;5;
28647;PMS5003;17137;51.494;-0.262;2023-08-06T01:15:36;5;5;
28647;PMS5003;17137;51.494;-0.262;2023-08-06T01:16:13;4;4;
28647;PMS5003;17137;51.494;-0.262;2023-08-06T01:16:46;4;4;
28647;PMS5003;17137;51.494;-0.262;2023-08-06T01:17:17;4;4;
28647;PMS5003;17137;51.494;-0.262;2023-08-06T01:17:49;4;4;
28647;PMS5003;17137;51.494;-0.262;2023-08-06T01:18:25;4;4;
28647;PMS5003;17137;51.494;-0.262;2023-08-06T01:18:55;4;4;
28647;PMS5003;17137;51.494;-0.262;2023-08-06T01:19:28;4;4;
28647;PMS5003;17137;51.494;-0.262;2023-08-06T01:19:58;4;4;
28647;PMS5003;17137;51.494;-0.262;2023-08-06T01:20:29;4;4;
28647;PMS5003;17137;51.494;-0.262;2023-08-06T01:21:00;4;4;
28647;PMS5003;17137;51.494;-0.262;2023-08-06T01:21:30;3;3;
28647;PMS5003;17137;51.494;-0.262;2023-08-06T01:22:00;3;3;
28647;PMS5003;17137;51.494;-0.262;2023-08-06T01:22:31;4;4;
28647;PMS5003;17137;51.494;-0.262;2023-08-06T01:23:01;4;4;
28647;PMS5003;17137;51.494;-0.262;2023-08-06T01:23:31;4;4;
28647;PMS5003;17137;51.494;-0.262;2023-08-06T01:24:02;4;4;
28647;PMS5003;17137;51.494;-0.262;2023-08-06T01:24:32;4;4;
28647;PMS5003;17137;51.494;-0.262;2023-08-06T01:25:03;4;4;
28647;PMS5003;17137;51.494;-0.262;2023-08-06T01:25:35;4;4;
28647;PMS5003;17137;51.494;-0.262;2023-08-06T01:26:14;4;4;
28647;PMS5003;17137;51.494;-0.262;2023-08-06T01:26:51;4;4;
28647;PMS5003;17137;51.494;-0.262;2023-08-06T01:27:32;4;4;
28647;PMS5003;17137;51.494;-0.262;2023-08-06T01:28:09;4;4;
28647;PMS5003;17137;51.494;-0.262;2023-08-06T01:28:47;4;4;
28647;PMS5003;17137;51.494;-0.262;2023-08-06T01:29:23;4;4;
28647;PMS5003;17137;51.494;-0.262;2023-08-06T01:29:58;4;4;
28647;PMS5003;17137;51.494;-0.262;2023-08-06T01:30:32;4;4;
28647;PMS5003;17137;51.494;-0.262;2023-08-06T01:31:07;4;4;
28647;PMS5003;17137;51.494;-0.262;2023-08-06T01:31:45;5;4;
28647;PMS5003;17137;51.494;-0.262;2023-08-06T01:32:18;4;3;
28647;PMS5003;17137;51.494;-0.262;2023-08-06T01:32:52;4;3;
28647;PMS5003;17137;51.494;-0.262;2023-08-06T01:33:27;4;3;
28647;PMS5003;17137;51.494;-0.262;2023-08-06T01:34:02;5;4;
28647;PMS5003;17137;51.494;-0.262;2023-08-06T01:34:35;5;4;
28647;PMS5003;17137;51.494;-0.262;2023-08-06T01:35:09;5;4;
28647;PMS5003;17137;51.494;-0.262;2023-08-06T01:35:43;5;4;
28647;PMS5003;17137;51.494;-0.262;2023-08-06T01:36:16;5;4;
28647;PMS5003;17137;51.494;-0.262;2023-08-06T01:36:47;5;4;
28647;PMS5003;17137;51.494;-0.262;2023-08-06T01:37:18;5;4;
28647;PMS5003;17137;51.494;-0.262;2023-08-06T01:37:49;5;5;
28647;PMS5003;17137;51.494;-0.262;2023-08-06T01:38:19;5;5;
28647;PMS5003;17137;51.494;-0.262;2023-08-06T01:38:50;5;5;
28647;PMS5003;17137;51.494;-0.262;2023-08-06T01:39:22;4;4;
28647;PMS5003;17137;51.494;-0.262;2023-08-06T01:39:52;4;4;
28647;PMS5003;17137;51.494;-0.262;2023-08-06T01:40:22;6;6;
28647;PMS5003;17137;51.494;-0.262;2023-08-06T01:40:53;6;6;
28647;PMS5003;17137;51.494;-0.262;2023-08-06T01:41:23;6;6;
28647;PMS5003;17137;51.494;-0.262;2023-08-06T01:41:53;7;7;
28647;PMS5003;17137;51.494;-0.262;2023-08-06T01:42:23;7;7;
28647;PMS5003;17137;51.494;-0.262;2023-08-06T01:42:54;7;7;
28647;PMS5003;17137;51.494;-0.262;2023-08-06T01:43:24;7;7;
28647;PMS5003;17137;51.494;-0.262;2023-08-06T01:43:54;7;7;
28647;PMS5003;17137;51.494;-0.262;2023-08-06T01:44:25;7;7;
28647;PMS5003;17137;51.494;-0.262;2023-08-06T01:44:55;7;7;
28647;PMS5003;17137;51.494;-0.262;2023-08-06T01:45:25;7;7;
28647;PMS5003;17137;51.494;-0.262;2023-08-06T01:45:55;7;7;
28647;PMS5003;17137;51.494;-0.262;2023-08-06T01:46:26;9;7;
28647;PMS5003;17137;51.494;-0.262;2023-08-06T01:46:56;9;7;
28647;PMS5003;17137;51.494;-0.262;2023-08-06T01:47:27;9;7;
28647;PMS5003;17137;51.494;-0.262;2023-08-06T01:47:57;9;7;
28647;PMS5003;17137;51.494;-0.262;2023-08-06T01:48:28;5;5;
28647;PMS5003;17137;51.494;-0.262;2023-08-06T01:48:58;5;5;
28647;PMS5003;17137;51.494;-0.262;2023-08-06T01:49:28;5;5;
28647;PMS5003;17137;51.494;-0.262;2023-08-06T01:49:59;5;5;
28647;PMS5003;17137;51.494;-0.262;2023-08-06T01:50:29;5;5;
28647;PMS5003;17137;51.494;-0.262;2023-08-06T01:50:59;5;5;
28647;PMS5003;17137;51.494;-0.262;2023-08-06T01:51:29;5;5;
28647;PMS5003;17137;51.494;-0.262;2023-08-06T01:52:00;5;5;
28647;PMS5003;17137;51.494;-0.262;2023-08-06T01:52:30;5;5;
28647;PMS5003;17137;51.494;-0.262;2023-08-06T01:53:00;5;5;
28647;PMS5003;17137;51.494;-0.262;2023-08-06T01:53:30;5;5;
28647;PMS5003;17137;51.494;-0.262;2023-08-06T01:54:01;5;5;
28647;PMS5003;17137;51.494;-0.262;2023-08-06T01:54:31;5;5;
28647;PMS5003;17137;51.494;-0.262;2023-08-06T01:55:01;5;5;
28647;PMS5003;17137;51.494;-0.262;2023-08-06T01:55:32;6;6;
28647;PMS5003;17137;51.494;-0.262;2023-08-06T01:56:02;6;6;
28647;PMS5003;17137;51.494;-0.262;2023-08-06T01:56:33;5;5;
28647;PMS5003;17137;51.494;-0.262;2023-08-06T01:57:03;5;5;
28647;PMS5003;17137;51.494;-0.262;2023-08-06T01:57:34;5;5;
28647;PMS5003;17137;51.494;-0.262;2023-08-06T01:58:05;5;5;
28647;PMS5003;17137;51.494;-0.262;2023-08-06T01:58:35;5;5;
28647;PMS5003;17137;51.494;-0.262;2023-08-06T01:59:05;5;5;
28647;PMS5003;17137;51.494;-0.262;2023-08-06T01:59:35;5;5;
28647;PMS5003;17137;51.494;-0.262;2023-08-06T02:00:06;5;5;
28647;PMS5003;17137;51.494;-0.262;2023-08-06T02:00:37;5;5;
28647;PMS5003;17137;51.494;-0.262;2023-08-06T02:01:07;5;5;
28647;PMS5003;17137;51.494;-0.262;2023-08-06T02:01:37;6;6;
28647;PMS5003;17137;51.494;-0.262;2023-08-06T02:02:08;6;6;
28647;PMS5003;17137;51.494;-0.262;2023-08-06T02:02:38;6;6;
28647;PMS5003;17137;51.494;-0.262;2023-08-06T02:03:08;6;6;
28647;PMS5003;17137;51.494;-0.262;2023-08-06T02:03:39;6;6;
28647;PMS5003;17137;51.494;-0.262;2023-08-06T02:04:09;6;6;
28647;PMS5003;17137;51.494;-0.262;2023-08-06T02:04:39;5;5;
28647;PMS5003;17137;51.494;-0.262;2023-08-06T02:05:09;5;5;
28647;PMS5003;17137;51.494;-0.262;2023-08-06T02:05:40;5;5;
28647;PMS5003;17137;51.494;-0.262;2023-08-06T02:06:11;5;5;
28647;PMS5003;17137;51.494;-0.262;2023-08-06T02:06:41;5;5;
28647;PMS5003;17137;51.494;-0.262;2023-08-06T02:07:11;4;4;
28647;PMS5003;17137;51.494;-0.262;2023-08-06T02:07:41;4;4;
28647;PMS5003;17137;51.494;-0.262;2023-08-06T02:08:12;4;4;
28647;PMS5003;17137;51.494;-0.262;2023-08-06T02:08:42;4;4;
28647;PMS5003;17137;51.494;-0.262;2023-08-06T02:09:12;4;4;
28647;PMS5003;17137;51.494;-0.262;2023-08-06T02:09:42;4;4;
28647;PMS5003;17137;51.494;-0.262;2023-08-06T02:10:13;4;4;
28647;PMS5003;17137;51.494;-0.262;2023-08-06T02:10:43;4;4;
28647;PMS5003;17137;51.494;-0.262;2023-08-06T02:11:14;4;4;
28647;PMS5003;17137;51.494;-0.262;2023-08-06T02:11:45;4;4;
28647;PMS5003;17137;51.494;-0.262;2023-08-06T02:12:15;4;4;
28647;PMS5003;17137;51.494;-0.262;2023-08-06T02:12:45;5;4;
28647;PMS5003;17137;51.494;-0.262;2023-08-06T02:13:15;6;4;
28647;PMS5003;17137;51.494;-0.262;2023-08-06T02:13:46;6;4;
28647;PMS5003;17137;51.494;-0.262;2023-08-06T02:14:16;6;4;
28647;PMS5003;17137;51.494;-0.262;2023-08-06T02:14:46;6;4;
28647;PMS5003;17137;51.494;-0.262;2023-08-06T02:15:17;6;4;
28647;PMS5003;17137;51.494;-0.262;2023-08-06T02:15:47;6;4;
28647;PMS5003;17137;51.494;-0.262;2023-08-06T02:16:17;5;4;
28647;PMS5003;17137;51.494;-0.262;2023-08-06T02:16:48;5;4;
28647;PMS5003;17137;51.494;-0.262;2023-08-06T02:17:18;5;4;
28647;PMS5003;17137;51.494;-0.262;2023-08-06T02:17:48;6;4;
28647;PMS5003;17137;51.494;-0.262;2023-08-06T02:18:18;6;4;
28647;PMS5003;17137;51.494;-0.262;2023-08-06T02:18:49;6;4;
28647;PMS5003;17137;51.494;-0.262;2023-08-06T02:19:19;7;4;
28647;PMS5003;17137;51.494;-0.262;2023-08-06T02:19:50;7;4;
28647;PMS5003;17137;51.494;-0.262;2023-08-06T02:20:20;7;4;
28647;PMS5003;17137;51.494;-0.262;2023-08-06T02:20:58;3;3;
28647;PMS5003;17137;51.494;-0.262;2023-08-06T02:21:29;4;4;
28647;PMS5003;17137;51.494;-0.262;2023-08-06T02:21:59;5;5;
28647;PMS5003;17137;51.494;-0.262;2023-08-06T02:22:29;5;5;
28647;PMS5003;17137;51.494;-0.262;2023-08-06T02:23:00;5;5;
28647;PMS5003;17137;51.494;-0.262;2023-08-06T02:23:30;5;5;
28647;PMS5003;17137;51.494;-0.262;2023-08-06T02:24:00;5;5;
28647;PMS5003;17137;51.494;-0.262;2023-08-06T02:24:30;5;5;
28647;PMS5003;17137;51.494;-0.262;2023-08-06T02:25:01;5;5;
28647;PMS5003;17137;51.494;-0.262;2023-08-06T02:25:31;4;4;
28647;PMS5003;17137;51.494;-0.262;2023-08-06T02:26:02;4;4;
28647;PMS5003;17137;51.494;-0.262;2023-08-06T02:26:33;4;4;
28647;PMS5003;17137;51.494;-0.262;2023-08-06T02:27:04;5;5;
28647;PMS5003;17137;51.494;-0.262;2023-08-06T02:27:34;5;5;
28647;PMS5003;17137;51.494;-0.262;2023-08-06T02:28:04;5;5;
28647;PMS5003;17137;51.494;-0.262;2023-08-06T02:28:35;5;5;
28647;PMS5003;17137;51.494;-0.262;2023-08-06T02:29:05;5;4;
28647;PMS5003;17137;51.494;-0.262;2023-08-06T02:29:35;4;4;
28647;PMS5003;17137;51.494;-0.262;2023-08-06T02:30:06;4;4;
28647;PMS5003;17137;51.494;-0.262;2023-08-06T02:30:37;4;4;
28647;PMS5003;17137;51.494;-0.262;2023-08-06T02:31:07;4;4;
28647;PMS5003;17137;51.494;-0.262;2023-08-06T02:31:37;4;4;
28647;PMS5003;17137;51.494;-0.262;2023-08-06T02:32:07;4;4;
28647;PMS5003;17137;51.494;-0.262;2023-08-06T02:32:38;4;4;
28647;PMS5003;17137;51.494;-0.262;2023-08-06T02:33:08;4;4;
28647;PMS5003;17137;51.494;-0.262;2023-08-06T02:33:38;4;4;
28647;PMS5003;17137;51.494;-0.262;2023-08-06T02:34:08;4;4;
28647;PMS5003;17137;51.494;-0.262;2023-08-06T02:34:39;4;4;
28647;PMS5003;17137;51.494;-0.262;2023-08-06T02:35:09;4;4;
28647;PMS5003;17137;51.494;-0.262;2023-08-06T02:35:39;5;5;
28647;PMS5003;17137;51.494;-0.262;2023-08-06T02:36:09;5;5;
28647;PMS5003;17137;51.494;-0.262;2023-08-06T02:36:40;5;5;
28647;PMS5003;17137;51.494;-0.262;2023-08-06T02:37:10;4;3;
28647;PMS5003;17137;51.494;-0.262;2023-08-06T02:37:40;4;3;
28647;PMS5003;17137;51.494;-0.262;2023-08-06T02:38:11;4;3;
28647;PMS5003;17137;51.494;-0.262;2023-08-06T02:38:41;4;3;
28647;PMS5003;17137;51.494;-0.262;2023-08-06T02:39:11;4;3;
28647;PMS5003;17137;51.494;-0.262;2023-08-06T02:39:41;4;3;
28647;PMS5003;17137;51.494;-0.262;2023-08-06T02:40:12;4;3;
28647;PMS5003;17137;51.494;-0.262;2023-08-06T02:40:42;4;3;
28647;PMS5003;17137;51.494;-0.262;2023-08-06T02:41:13;3;3;
28647;PMS5003;17137;51.494;-0.262;2023-08-06T02:41:43;3;3;
28647;PMS5003;17137;51.494;-0.262;2023-08-06T02:42:14;3;3;
28647;PMS5003;17137;51.494;-0.262;2023-08-06T02:42:44;2;2;
28647;PMS5003;17137;51.494;-0.262;2023-08-06T02:43:14;2;2;
28647;PMS5003;17137;51.494;-0.262;2023-08-06T02:43:44;2;2;
28647;PMS5003;17137;51.494;-0.262;2023-08-06T02:44:15;2;2;
28647;PMS5003;17137;51.494;-0.262;2023-08-06T02:44:45;2;2;
28647;PMS5003;17137;51.494;-0.262;2023-08-06T02:45:15;4;4;
28647;PMS5003;17137;51.494;-0.262;2023-08-06T02:45:46;4;4;
28647;PMS5003;17137;51.494;-0.262;2023-08-06T02:46:16;4;4;
28647;PMS5003;17137;51.494;-0.262;2023-08-06T02:46:46;4;4;
28647;PMS5003;17137;51.494;-0.262;2023-08-06T02:47:16;4;3;
28647;PMS5003;17137;51.494;-0.262;2023-08-06T02:47:47;4;3;
28647;PMS5003;17137;51.494;-0.262;2023-08-06T02:48:17;4;3;
28647;PMS5003;17137;51.494;-0.262;2023-08-06T02:48:47;3;3;
28647;PMS5003;17137;51.494;-0.262;2023-08-06T02:49:17;3;3;
28647;PMS5003;17137;51.494;-0.262;2023-08-06T02:49:48;3;3;
28647;PMS5003;17137;51.494;-0.262;2023-08-06T02:50:18;4;3;
28647;PMS5003;17137;51.494;-0.262;2023-08-06T02:50:48;4;3;
28647;PMS5003;17137;51.494;-0.262;2023-08-06T02:51:18;4;3;
28647;PMS5003;17137;51.494;-0.262;2023-08-06T02:51:49;3;3;
28647;PMS5003;17137;51.494;-0.262;2023-08-06T02:52:19;3;3;
28647;PMS5003;17137;51.494;-0.262;2023-08-06T02:52:49;3;3;
28647;PMS5003;17137;51.494;-0.262;2023-08-06T02:53:20;2;2;
28647;PMS5003;17137;51.494;-0.262;2023-08-06T02:53:50;3;3;
28647;PMS5003;17137;51.494;-0.262;2023-08-06T02:54:20;2;2;
28647;PMS5003;17137;51.494;-0.262;2023-08-06T02:54:50;2;2;
28647;PMS5003;17137;51.494;-0.262;2023-08-06T02:55:21;3;2;
28647;PMS5003;17137;51.494;-0.262;2023-08-06T02:55:56;3;2;
28647;PMS5003;17137;51.494;-0.262;2023-08-06T02:56:27;4;3;
28647;PMS5003;17137;51.494;-0.262;2023-08-06T02:56:58;4;2;
28647;PMS5003;17137;51.494;-0.262;2023-08-06T02:57:28;4;2;
28647;PMS5003;17137;51.494;-0.262;2023-08-06T02:57:58;3;1;
28647;PMS5003;17137;51.494;-0.262;2023-08-06T02:58:29;4;2;
28647;PMS5003;17137;51.494;-0.262;2023-08-06T02:58:59;4;2;
28647;PMS5003;17137;51.494;-0.262;2023-08-06T02:59:29;4;2;
28647;PMS5003;17137;51.494;-0.262;2023-08-06T03:00:00;6;3;
28647;PMS5003;17137;51.494;-0.262;2023-08-06T03:00:30;6;3;
28647;PMS5003;17137;51.494;-0.262;2023-08-06T03:01:01;6;3;
28647;PMS5003;17137;51.494;-0.262;2023-08-06T03:01:32;6;3;
28647;PMS5003;17137;51.494;-0.262;2023-08-06T03:02:02;5;2;
28647;PMS5003;17137;51.494;-0.262;2023-08-06T03:02:33;5;2;
28647;PMS5003;17137;51.494;-0.262;2023-08-06T03:03:03;5;2;
28647;PMS5003;17137;51.494;-0.262;2023-08-06T03:03:33;5;3;
28647;PMS5003;17137;51.494;-0.262;2023-08-06T03:04:04;5;3;
28647;PMS5003;17137;51.494;-0.262;2023-08-06T03:04:34;5;3;
28647;PMS5003;17137;51.494;-0.262;2023-08-06T03:05:05;5;3;
28647;PMS5003;17137;51.494;-0.262;2023-08-06T03:05:36;4;2;
28647;PMS5003;17137;51.494;-0.262;2023-08-06T03:06:06;4;2;
28647;PMS5003;17137;51.494;-0.262;2023-08-06T03:06:36;2;2;
28647;PMS5003;17137;51.494;-0.262;2023-08-06T03:07:06;3;3;
28647;PMS5003;17137;51.494;-0.262;2023-08-06T03:07:37;3;3;
28647;PMS5003;17137;51.494;-0.262;2023-08-06T03:08:07;3;3;
28647;PMS5003;17137;51.494;-0.262;2023-08-06T03:08:38;2;2;
28647;PMS5003;17137;51.494;-0.262;2023-08-06T03:09:08;2;2;
28647;PMS5003;17137;51.494;-0.262;2023-08-06T03:09:38;3;3;
28647;PMS5003;17137;51.494;-0.262;2023-08-06T03:10:09;3;3;
28647;PMS5003;17137;51.494;-0.262;2023-08-06T03:10:39;3;3;
28647;PMS5003;17137;51.494;-0.262;2023-08-06T03:11:09;3;3;
28647;PMS5003;17137;51.494;-0.262;2023-08-06T03:11:40;3;3;
28647;PMS5003;17137;51.494;-0.262;2023-08-06T03:12:10;3;3;
28647;PMS5003;17137;51.494;-0.262;2023-08-06T03:12:40;3;3;
28647;PMS5003;17137;51.494;-0.262;2023-08-06T03:13:11;5;3;
28647;PMS5003;17137;51.494;-0.262;2023-08-06T03:13:41;5;3;
28647;PMS5003;17137;51.494;-0.262;2023-08-06T03:14:12;5;3;
28647;PMS5003;17137;51.494;-0.262;2023-08-06T03:14:42;5;3;
28647;PMS5003;17137;51.494;-0.262;2023-08-06T03:15:13;5;3;
28647;PMS5003;17137;51.494;-0.262;2023-08-06T03:15:43;5;3;
28647;PMS5003;17137;51.494;-0.262;2023-08-06T03:16:21;5;4;
28647;PMS5003;17137;51.494;-0.262;2023-08-06T03:16:52;5;4;
28647;PMS5003;17137;51.494;-0.262;2023-08-06T03:17:22;5;4;
28647;PMS5003;17137;51.494;-0.262;2023-08-06T03:17:55;4;4;
28647;PMS5003;17137;51.494;-0.262;2023-08-06T03:18:31;4;4;
28647;PMS5003;17137;51.494;-0.262;2023-08-06T03:19:01;4;4;
28647;PMS5003;17137;51.494;-0.262;2023-08-06T03:19:32;4;4;
28647;PMS5003;17137;51.494;-0.262;2023-08-06T03:20:03;4;4;
28647;PMS5003;17137;51.494;-0.262;2023-08-06T03:20:34;5;4;
28647;PMS5003;17137;51.494;-0.262;2023-08-06T03:21:05;5;4;
28647;PMS5003;17137;51.494;-0.262;2023-08-06T03:21:36;5;4;
28647;PMS5003;17137;51.494;-0.262;2023-08-06T03:22:07;5;4;
28647;PMS5003;17137;51.494;-0.262;2023-08-06T03:22:43;5;4;
28647;PMS5003;17137;51.494;-0.262;2023-08-06T03:23:14;5;4;
28647;PMS5003;17137;51.494;-0.262;2023-08-06T03:23:46;5;4;
28647;PMS5003;17137;51.494;-0.262;2023-08-06T03:24:17;5;4;
28647;PMS5003;17137;51.494;-0.262;2023-08-06T03:24:50;5;4;
28647;PMS5003;17137;51.494;-0.262;2023-08-06T03:25:20;5;5;
28647;PMS5003;17137;51.494;-0.262;2023-08-06T03:25:50;5;5;
28647;PMS5003;17137;51.494;-0.262;2023-08-06T03:26:21;7;4;
28647;PMS5003;17137;51.494;-0.262;2023-08-06T03:26:52;7;4;
28647;PMS5003;17137;51.494;-0.262;2023-08-06T03:27:28;7;4;
28647;PMS5003;17137;51.494;-0.262;2023-08-06T03:27:58;7;4;
28647;PMS5003;17137;51.494;-0.262;2023-08-06T03:28:29;7;4;
28647;PMS5003;17137;51.494;-0.262;2023-08-06T03:29:01;7;4;
28647;PMS5003;17137;51.494;-0.262;2023-08-06T03:29:31;7;4;
28647;PMS5003;17137;51.494;-0.262;2023-08-06T03:30:03;4;3;
28647;PMS5003;17137;51.494;-0.262;2023-08-06T03:30:35;4;3;